ADDS METAR Data INFO
IDs: Format: Raw Decoded Include TAF

Data at: 0837 UTC 21 Oct 2017

KSHV 210835Z 15010KT 10SM FEW008 BKN010 OVC070 21/20 A2997 RMK AO2 T02110200
KSHV 210831Z 16009KT 10SM FEW009 SCT010 OVC070 21/20 A2997 RMK AO2 T02060200
KSHV 210756Z 16008KT 10SM SCT070 BKN290 21/19 A2998 RMK AO2 SLP147 T02060194
KSHV 210656Z 14009KT 10SM BKN075 OVC290 20/18 A2999 RMK AO2 SLP151 T02000183
KSHV 210556Z 00000KT 10SM FEW036 BKN090 BKN290 18/18 A3001 RMK AO2 SLP161 T01830178 10228 20178 402670133 50002
KSHV 210456Z 14005KT 10SM FEW033 19/18 A3001 RMK AO2 SLP161 T01890178
KSHV 210356Z 13006KT 10SM CLR 19/18 A3001 RMK AO2 SLP161 T01890178
KSHV 210256Z 12004KT 10SM FEW140 FEW300 19/18 A3001 RMK AO2 SLP159 T01940178 58001
KSHV 210156Z 13008KT 10SM FEW140 FEW200 SCT300 21/18 A3001 RMK AO2 SLP160 T02110183
KSHV 210056Z 13007KT 10SM FEW140 FEW200 SCT300 22/18 A3001 RMK AO2 SLP160 T02170178
KSHV 202356Z 12007KT 10SM FEW070 FEW140 SCT200 BKN300 23/17 A3001 RMK AO2 SLP160 T02280172 10267 20228 56012
KSHV 202256Z 13010KT 10SM FEW070 FEW140 BKN300 24/16 A3001 RMK AO2 SLP160 T02440161
KSHV 202156Z 13008KT 10SM FEW050 SCT140 BKN280 26/16 A3002 RMK AO2 SLP163 T02560156
KSHV 202056Z 16008KT 10SM SCT050 BKN140 BKN280 26/16 A3005 RMK AO2 SLP172 T02610156 56015
KSHV 201956Z 13008KT 10SM BKN050 BKN280 25/16 A3006 RMK AO2 SLP176 T02500161
KSHV 201856Z 13005KT 10SM FEW140 SCT190 BKN280 24/17 A3007 RMK AO2 SLP179 T02440167
KSHV 201756Z 11007KT 10SM SCT140 BKN280 24/17 A3009 RMK AO2 SLP187 T02440172 10244 20167 58019
KSHV 201656Z 15010KT 10SM SCT140 BKN280 23/18 A3013 RMK AO2 SLP200 T02280178
KSHV 201556Z 15012KT 10SM BKN140 OVC280 22/18 A3015 RMK AO2 SLP208 T02170178
KSHV 201456Z 14010KT 10SM OVC120 21/18 A3015 RMK AO2 SLP206 T02060183 53004
KSHV 201356Z 14006KT 10SM FEW050 BKN100 OVC280 19/18 A3015 RMK AO2 SLP206 T01890178
KSHV 201256Z 13004KT 10SM SCT043 BKN100 OVC280 17/16 A3012 RMK AO2 SLP196 T01720161
KSHV 201156Z 12003KT 10SM FEW080 OVC280 17/15 A3013 RMK AO2 SLP201 T01670150 10167 20133 53002
KSHV 201056Z 00000KT 10SM FEW080 OVC280 16/14 A3011 RMK AO2 SLP193 T01610144
KSHV 200956Z 00000KT 10SM OVC280 15/14 A3011 RMK AO2 SLP193 T01500139
KSHV 200856Z 00000KT 10SM OVC280 16/14 A3013 RMK AO2 SLP199 T01560139 58004
KSHV 200756Z 00000KT 10SM OVC280 16/14 A3013 RMK AO2 SLP200 T01560139
KSHV 200656Z 11003KT 10SM OVC280 16/14 A3014 RMK AO2 SLP205 T01560139
KSHV 200556Z 10003KT 10SM BKN280 14/13 A3014 RMK AO2 SLP204 T01390128 10228 20139 402780094 50001
KSHV 200456Z 00000KT 10SM BKN260 16/14 A3014 RMK AO2 SLP204 T01610139
KSHV 200356Z 00000KT 10SM BKN260 18/14 A3015 RMK AO2 SLP207 T01780144
KSHV 200256Z 11003KT 10SM BKN260 18/14 A3014 RMK AO2 SLP202 T01830144 51006
KSHV 200156Z 00000KT 10SM BKN260 19/14 A3013 RMK AO2 SLP202 T01890144
KSHV 200056Z 13005KT 10SM BKN260 21/14 A3013 RMK AO2 SLP202 T02060144
KSHV 192356Z 13005KT 10SM BKN260 23/14 A3012 RMK AO2 SLP196 T02280139 10278 20228 55003
KSHV 192256Z 10008KT 10SM BKN260 25/13 A3011 RMK AO2 SLP194 T02500128
KSHV 192156Z 10010KT 10SM BKN260 27/13 A3011 RMK AO2 SLP194 T02670133
KSHV 192056Z 14009KT 10SM BKN280 27/13 A3012 RMK AO2 SLP198 T02670128 56020